createdAt,value
2017-10-09T00:00:54.710Z,983.8
2017-10-09T00:01:56.662Z,983.9
2017-10-09T00:02:58.888Z,983.9
2017-10-09T00:04:00.787Z,983.8
2017-10-09T00:05:02.770Z,983.8
2017-10-09T00:06:04.719Z,983.9
2017-10-09T00:07:06.669Z,983.8
2017-10-09T00:08:09.169Z,983.8
2017-10-09T00:09:11.114Z,983.8
2017-10-09T00:10:13.099Z,983.8
2017-10-09T00:11:15.023Z,983.9
2017-10-09T00:12:16.933Z,983.9
2017-10-09T00:13:19.223Z,983.8
2017-10-09T00:14:21.395Z,983.9
2017-10-09T00:15:25.912Z,983.9
2017-10-09T00:16:27.819Z,983.9
2017-10-09T00:17:29.814Z,983.9
2017-10-09T00:18:32.092Z,983.9
2017-10-09T00:19:33.972Z,983.9
2017-10-09T00:20:35.852Z,983.9
2017-10-09T00:21:37.888Z,983.8
2017-10-09T00:22:39.859Z,983.9
2017-10-09T00:23:42.233Z,983.8
2017-10-09T00:24:44.228Z,983.9
2017-10-09T00:25:46.231Z,983.9
2017-10-09T00:26:48.186Z,983.9
2017-10-09T00:27:50.118Z,983.9
2017-10-09T00:28:53.081Z,983.8
2017-10-09T00:29:55.096Z,983.8
2017-10-09T00:30:56.980Z,983.9
2017-10-09T00:31:58.966Z,983.9
2017-10-09T00:33:00.946Z,983.9
2017-10-09T00:34:03.196Z,983.8
2017-10-09T00:35:05.142Z,983.8
2017-10-09T00:36:07.079Z,983.9
2017-10-09T00:37:09.038Z,983.9
2017-10-09T00:38:10.981Z,983.9
2017-10-09T00:39:13.204Z,983.8
2017-10-09T00:40:15.173Z,983.8
2017-10-09T00:41:17.173Z,983.9
2017-10-09T00:42:19.174Z,983.9
2017-10-09T00:43:21.142Z,983.9
2017-10-09T00:44:23.436Z,983.9
2017-10-09T00:45:25.358Z,983.9
2017-10-09T00:46:27.283Z,983.9
2017-10-09T00:47:29.252Z,983.9
2017-10-09T00:48:31.183Z,983.9
2017-10-09T00:49:33.502Z,983.9
2017-10-09T00:50:35.475Z,983.9
2017-10-09T00:51:37.480Z,983.9
2017-10-09T00:52:39.434Z,983.9
2017-10-09T00:53:41.433Z,983.8
2017-10-09T00:54:43.689Z,983.8
2017-10-09T00:55:45.673Z,983.9
2017-10-09T00:56:47.601Z,983.8
2017-10-09T00:57:49.634Z,983.9
2017-10-09T00:58:52.653Z,983.8
2017-10-09T00:59:54.996Z,983.8
2017-10-09T01:00:56.946Z,983.8
2017-10-09T01:01:58.953Z,983.8
2017-10-09T01:03:00.897Z,983.9
2017-10-09T01:04:02.875Z,983.9
2017-10-09T01:05:05.181Z,983.8
2017-10-09T01:06:07.118Z,983.9
2017-10-09T01:07:09.071Z,983.9
2017-10-09T01:08:11.020Z,983.9
2017-10-09T01:09:12.990Z,983.9
2017-10-09T01:10:15.416Z,983.9
2017-10-09T01:11:17.304Z,983.9
2017-10-09T01:12:19.258Z,983.9
2017-10-09T01:13:21.148Z,983.9
2017-10-09T01:14:23.141Z,983.9
2017-10-09T01:15:25.433Z,983.9
2017-10-09T01:16:27.321Z,983.9
2017-10-09T01:17:29.271Z,983.9
2017-10-09T01:18:31.359Z,983.8
2017-10-09T01:19:33.266Z,983.8
2017-10-09T01:20:35.586Z,983.9
2017-10-09T01:21:37.497Z,983.9
2017-10-09T01:22:39.490Z,983.9
2017-10-09T01:23:41.437Z,983.9
2017-10-09T01:24:43.372Z,983.9
2017-10-09T01:25:45.535Z,983.9
2017-10-09T01:26:47.456Z,983.8
2017-10-09T01:27:49.385Z,983.9
2017-10-09T01:28:51.374Z,983.9
2017-10-09T01:29:53.303Z,983.9
2017-10-09T01:30:55.883Z,983.9
2017-10-09T01:31:57.808Z,983.9
2017-10-09T01:32:59.683Z,983.8
2017-10-09T01:34:01.669Z,983.8
2017-10-09T01:35:03.642Z,983.8
2017-10-09T01:36:06.051Z,983.8
2017-10-09T01:37:08.000Z,983.9
2017-10-09T01:38:09.955Z,983.8
2017-10-09T01:39:12.156Z,983.9
2017-10-09T01:40:14.112Z,983.9
2017-10-09T01:41:16.406Z,983.9
2017-10-09T01:42:18.375Z,983.9
2017-10-09T01:43:20.248Z,983.9
2017-10-09T01:44:22.117Z,983.9
2017-10-09T01:45:24.109Z,983.9
2017-10-09T01:46:26.529Z,983.9
2017-10-09T01:47:28.440Z,983.9
2017-10-09T01:48:30.390Z,983.9
2017-10-09T01:49:32.319Z,983.9
2017-10-09T01:50:34.274Z,983.9
2017-10-09T01:51:36.564Z,983.9
2017-10-09T01:52:38.509Z,983.9
2017-10-09T01:53:40.443Z,983.9
2017-10-09T01:54:42.332Z,983.9
2017-10-09T01:55:44.219Z,983.9
2017-10-09T01:56:46.450Z,983.9
2017-10-09T01:57:48.337Z,983.9
2017-10-09T01:58:50.326Z,983.9
2017-10-09T01:59:52.241Z,983.9
2017-10-09T02:00:54.177Z,983.8
2017-10-09T02:01:56.401Z,983.9
2017-10-09T02:02:58.297Z,983.9
2017-10-09T02:04:00.266Z,983.9
2017-10-09T02:05:02.534Z,983.9
2017-10-09T02:06:04.462Z,983.9
2017-10-09T02:07:06.830Z,983.8
2017-10-09T02:08:08.720Z,983.9
2017-10-09T02:09:10.632Z,983.9
2017-10-09T02:10:12.707Z,983.9
2017-10-09T02:11:14.658Z,983.8
2017-10-09T02:12:16.990Z,983.8
2017-10-09T02:13:18.973Z,983.9
2017-10-09T02:14:20.970Z,983.9
2017-10-09T02:15:22.888Z,983.9
2017-10-09T02:16:24.847Z,983.9
2017-10-09T02:17:27.158Z,983.9
2017-10-09T02:18:29.135Z,983.9
2017-10-09T02:19:31.313Z,983.9
2017-10-09T02:20:33.380Z,983.9
2017-10-09T02:21:35.349Z,983.9
2017-10-09T02:22:37.802Z,983.9
2017-10-09T02:23:39.735Z,983.9
2017-10-09T02:24:41.679Z,983.9
2017-10-09T02:25:43.644Z,983.8
2017-10-09T02:26:45.593Z,983.8
2017-10-09T02:27:47.948Z,983.9
2017-10-09T02:28:49.883Z,983.9
2017-10-09T02:29:51.856Z,983.9
2017-10-09T02:30:53.961Z,983.9
2017-10-09T02:31:55.914Z,984
2017-10-09T02:32:58.227Z,984
2017-10-09T02:34:00.131Z,984
2017-10-09T02:35:02.386Z,984
2017-10-09T02:36:04.330Z,984
2017-10-09T02:37:06.247Z,984
2017-10-09T02:38:08.519Z,984
2017-10-09T02:39:10.483Z,984
2017-10-09T02:40:12.431Z,984
2017-10-09T02:41:14.351Z,984
2017-10-09T02:42:16.233Z,984
2017-10-09T02:43:18.512Z,983.9
2017-10-09T02:44:20.445Z,983.9
2017-10-09T02:45:22.480Z,983.9
2017-10-09T02:46:24.415Z,983.9
2017-10-09T02:47:26.356Z,983.9
2017-10-09T02:48:28.828Z,983.9
2017-10-09T02:49:30.768Z,984
2017-10-09T02:50:32.753Z,984
2017-10-09T02:51:34.677Z,984
2017-10-09T02:52:36.657Z,984
2017-10-09T02:53:38.934Z,984.1
2017-10-09T02:54:41.170Z,983.9
2017-10-09T02:55:43.113Z,984
2017-10-09T02:56:45.046Z,984
2017-10-09T02:57:46.967Z,984
2017-10-09T02:58:49.306Z,984
2017-10-09T02:59:51.308Z,984
2017-10-09T03:00:53.428Z,984
2017-10-09T03:01:55.392Z,984
2017-10-09T03:02:57.367Z,984
2017-10-09T03:03:59.607Z,984
2017-10-09T03:05:01.574Z,983.9
2017-10-09T03:06:03.591Z,983.9
2017-10-09T03:07:05.551Z,983.9
2017-10-09T03:08:07.490Z,983.9
2017-10-09T03:09:09.676Z,983.9
2017-10-09T03:10:11.636Z,983.9
2017-10-09T03:11:13.544Z,983.9
2017-10-09T03:12:15.537Z,983.9
2017-10-09T03:13:17.521Z,983.9
2017-10-09T03:14:19.981Z,983.9
2017-10-09T03:15:21.884Z,983.9
2017-10-09T03:16:23.866Z,984
2017-10-09T03:17:25.792Z,983.9
2017-10-09T03:18:27.730Z,984
2017-10-09T03:19:29.926Z,983.8
2017-10-09T03:20:31.879Z,983.8
2017-10-09T03:21:33.823Z,983.8
2017-10-09T03:22:35.758Z,983.9
2017-10-09T03:23:37.767Z,983.9
2017-10-09T03:24:39.984Z,984
2017-10-09T03:25:41.923Z,984
2017-10-09T03:26:43.832Z,984
2017-10-09T03:27:45.721Z,984.1
2017-10-09T03:28:47.702Z,984.1
2017-10-09T03:29:50.003Z,984.1
2017-10-09T03:30:51.914Z,984
2017-10-09T03:31:53.846Z,984
2017-10-09T03:32:55.796Z,984
2017-10-09T03:33:57.713Z,984
2017-10-09T03:34:59.983Z,983.9
2017-10-09T03:36:01.874Z,984
2017-10-09T03:37:03.811Z,984
2017-10-09T03:38:05.769Z,984
2017-10-09T03:39:07.710Z,984
2017-10-09T03:40:09.929Z,984
2017-10-09T03:41:11.824Z,984.1
2017-10-09T03:42:13.693Z,984
2017-10-09T03:43:15.623Z,984.1
2017-10-09T03:44:17.541Z,984.1
2017-10-09T03:45:19.886Z,984.1
2017-10-09T03:46:21.863Z,984.1
2017-10-09T03:47:23.790Z,984.1
2017-10-09T03:48:25.745Z,984.1
2017-10-09T03:49:27.730Z,984.1
2017-10-09T03:50:29.942Z,984.1
2017-10-09T03:51:32.021Z,984.1
2017-10-09T03:52:33.897Z,984.1
2017-10-09T03:53:35.811Z,984
2017-10-09T03:54:37.785Z,984.1
2017-10-09T03:55:40.028Z,984.1
2017-10-09T03:56:41.975Z,984.1
2017-10-09T03:57:43.914Z,984.1
2017-10-09T03:58:45.860Z,984
2017-10-09T03:59:47.780Z,984
2017-10-09T04:00:50.026Z,984.1
2017-10-09T04:01:51.929Z,984.1
2017-10-09T04:02:53.886Z,984.1
2017-10-09T04:03:55.745Z,984.1
2017-10-09T04:04:57.723Z,984.1
2017-10-09T04:06:00.022Z,984.1
2017-10-09T04:07:01.951Z,984.1
2017-10-09T04:08:03.944Z,984.1
2017-10-09T04:09:05.864Z,984.1
2017-10-09T04:10:07.838Z,984.1
2017-10-09T04:11:10.144Z,984.1
2017-10-09T04:12:12.017Z,984.1
2017-10-09T04:13:13.920Z,984.1
2017-10-09T04:14:15.811Z,984.1
2017-10-09T04:15:17.791Z,984.2
2017-10-09T04:16:20.063Z,984.2
2017-10-09T04:17:21.992Z,984.1
2017-10-09T04:18:23.958Z,984.2
2017-10-09T04:19:26.110Z,984.1
2017-10-09T04:20:28.118Z,984.2
2017-10-09T04:21:30.790Z,984.2
2017-10-09T04:22:32.702Z,984.2
2017-10-09T04:23:34.716Z,984.2
2017-10-09T04:24:36.716Z,984.2
2017-10-09T04:25:38.920Z,984.1
2017-10-09T04:26:41.230Z,984.1
2017-10-09T04:27:43.181Z,984.1
2017-10-09T04:28:45.131Z,984.1
2017-10-09T04:29:47.697Z,984.1
2017-10-09T04:30:49.625Z,984.2
2017-10-09T04:31:51.939Z,984.1
2017-10-09T04:32:53.823Z,984.1
2017-10-09T04:33:56.104Z,984.2
2017-10-09T04:34:58.111Z,984.1
2017-10-09T04:36:00.118Z,984.1
2017-10-09T04:37:02.335Z,984.2
2017-10-09T04:38:04.401Z,984.1
2017-10-09T04:39:06.335Z,984.1
2017-10-09T04:40:08.280Z,984.1
2017-10-09T04:41:10.183Z,984
2017-10-09T04:42:13.046Z,984.1
2017-10-09T04:43:14.993Z,984.1
2017-10-09T04:44:16.950Z,984.1
2017-10-09T04:45:18.892Z,984.1
2017-10-09T04:46:20.925Z,984.1
2017-10-09T04:47:23.244Z,984.1
2017-10-09T04:48:25.165Z,984.1
2017-10-09T04:49:27.089Z,984.1
2017-10-09T04:50:29.077Z,984.1
2017-10-09T04:51:30.973Z,984.1
2017-10-09T04:52:33.222Z,984
2017-10-09T04:53:35.143Z,984.1
2017-10-09T04:54:37.021Z,984.1
2017-10-09T04:55:38.985Z,984.1
2017-10-09T04:56:41.103Z,984.2
2017-10-09T04:57:43.402Z,984.2
2017-10-09T04:58:45.335Z,984.2
2017-10-09T04:59:47.295Z,984.2
2017-10-09T05:00:49.318Z,984.1
2017-10-09T05:01:51.229Z,984.1
2017-10-09T05:02:53.417Z,984.1
2017-10-09T05:03:55.392Z,984.1
2017-10-09T05:04:57.409Z,984.1
2017-10-09T05:05:59.341Z,984.2
2017-10-09T05:07:01.324Z,984.2
2017-10-09T05:08:03.571Z,984.1
2017-10-09T05:09:05.536Z,984.2
2017-10-09T05:10:07.497Z,984.2
2017-10-09T05:11:09.543Z,984.2
2017-10-09T05:12:11.464Z,984.2
2017-10-09T05:13:13.722Z,984.2
2017-10-09T05:14:15.659Z,984.2
2017-10-09T05:15:17.671Z,984.2
2017-10-09T05:16:19.811Z,984.2
2017-10-09T05:17:21.843Z,984.2
2017-10-09T05:18:24.198Z,984.3
2017-10-09T05:19:26.170Z,984.2
2017-10-09T05:20:28.086Z,984.2
2017-10-09T05:21:30.022Z,984.2
2017-10-09T05:22:31.959Z,984.2
2017-10-09T05:23:34.343Z,984.2
2017-10-09T05:24:36.273Z,984.3
2017-10-09T05:25:38.193Z,984.3
2017-10-09T05:26:40.119Z,984.3
2017-10-09T05:27:42.120Z,984.3
2017-10-09T05:28:44.569Z,984.2
2017-10-09T05:29:46.616Z,984.3
2017-10-09T05:30:48.573Z,984.3
2017-10-09T05:31:50.486Z,984.3
2017-10-09T05:32:52.457Z,984.3
2017-10-09T05:33:54.770Z,984.3
2017-10-09T05:34:56.732Z,984.3
2017-10-09T05:35:58.741Z,984.3
2017-10-09T05:37:00.740Z,984.3
2017-10-09T05:38:02.726Z,984.4
2017-10-09T05:39:04.927Z,984.4
2017-10-09T05:40:06.840Z,984.4
2017-10-09T05:41:08.886Z,984.4
2017-10-09T05:42:10.886Z,984.4
2017-10-09T05:43:12.790Z,984.4
2017-10-09T05:44:15.050Z,984.4
2017-10-09T05:45:16.996Z,984.4
2017-10-09T05:46:18.947Z,984.4
2017-10-09T05:47:20.918Z,984.4
2017-10-09T05:48:22.913Z,984.3
2017-10-09T05:49:25.192Z,984.3
2017-10-09T05:50:27.228Z,984.3
2017-10-09T05:51:29.351Z,984.4
2017-10-09T05:52:31.293Z,984.4
2017-10-09T05:53:33.270Z,984.4
2017-10-09T05:54:35.470Z,984.4
2017-10-09T05:55:37.431Z,984.4
2017-10-09T05:56:39.480Z,984.4
2017-10-09T05:57:41.478Z,984.4
2017-10-09T05:58:43.441Z,984.4
2017-10-09T05:59:45.834Z,984.4
2017-10-09T06:00:47.768Z,984.4
2017-10-09T06:01:49.720Z,984.4
2017-10-09T06:02:51.735Z,984.4
2017-10-09T06:03:53.684Z,984.4
2017-10-09T06:04:55.981Z,984.4
2017-10-09T06:05:57.968Z,984.3
2017-10-09T06:06:59.914Z,984.4
2017-10-09T06:08:01.904Z,984.4
2017-10-09T06:09:04.033Z,984.4
2017-10-09T06:10:06.281Z,984.4
2017-10-09T06:11:08.258Z,984.4
2017-10-09T06:12:10.187Z,984.4
2017-10-09T06:13:12.092Z,984.3
2017-10-09T06:14:14.105Z,984.3
2017-10-09T06:15:16.746Z,984.3
2017-10-09T06:16:18.714Z,984.3
2017-10-09T06:17:20.759Z,984.4
2017-10-09T06:18:22.761Z,984.4
2017-10-09T06:19:24.774Z,984.4
2017-10-09T06:20:27.021Z,984.4
2017-10-09T06:21:29.008Z,984.4
2017-10-09T06:22:30.988Z,984.4
2017-10-09T06:23:32.951Z,984.4
2017-10-09T06:24:34.931Z,984.4
2017-10-09T06:25:37.226Z,984.4
2017-10-09T06:26:39.191Z,984.4
2017-10-09T06:27:41.235Z,984.4
2017-10-09T06:28:43.247Z,984.3
2017-10-09T06:29:45.172Z,984.3
2017-10-09T06:30:47.454Z,984.4
2017-10-09T06:31:49.456Z,984.4
2017-10-09T06:32:51.438Z,984.3
2017-10-09T06:33:53.423Z,984.4
2017-10-09T06:34:55.439Z,984.4
2017-10-09T06:35:57.745Z,984.4
2017-10-09T06:36:59.706Z,984.3
2017-10-09T06:38:01.744Z,984.4
2017-10-09T06:39:03.710Z,984.4
2017-10-09T06:40:05.690Z,984.4
2017-10-09T06:41:07.957Z,984.4
2017-10-09T06:42:09.999Z,984.3
2017-10-09T06:43:11.945Z,984.4
2017-10-09T06:44:13.947Z,984.4
2017-10-09T06:45:15.937Z,984.4
2017-10-09T06:46:18.327Z,984.3
2017-10-09T06:47:20.267Z,984.4
2017-10-09T06:48:22.239Z,984.3
2017-10-09T06:49:24.188Z,984.3
2017-10-09T06:50:26.267Z,984.3
2017-10-09T06:51:28.443Z,984.3
2017-10-09T06:52:30.418Z,984.3
2017-10-09T06:53:32.444Z,984.4
2017-10-09T06:54:34.449Z,984.4
2017-10-09T06:55:36.451Z,984.4
2017-10-09T06:56:38.792Z,984.4
2017-10-09T06:57:40.821Z,984.4
2017-10-09T06:58:42.805Z,984.4
2017-10-09T06:59:44.804Z,984.4
2017-10-09T07:00:46.812Z,984.4
2017-10-09T07:01:48.771Z,984.4
2017-10-09T07:02:50.750Z,984.5
2017-10-09T07:03:52.686Z,984.4
2017-10-09T07:04:54.755Z,984.4
2017-10-09T07:05:56.689Z,984.4
2017-10-09T07:06:59.051Z,984.4
2017-10-09T07:08:00.981Z,984.4
2017-10-09T07:09:03.008Z,984.4
2017-10-09T07:10:05.012Z,984.5
2017-10-09T07:11:06.947Z,984.5
2017-10-09T07:12:09.204Z,984.5
2017-10-09T07:13:11.214Z,984.6
2017-10-09T07:14:13.111Z,984.5
2017-10-09T07:15:15.013Z,984.5
2017-10-09T07:16:17.056Z,984.5
2017-10-09T07:17:19.326Z,984.5
2017-10-09T07:18:21.274Z,984.5
2017-10-09T07:19:23.195Z,984.5
2017-10-09T07:20:25.264Z,984.5
2017-10-09T07:21:27.231Z,984.5
2017-10-09T07:22:29.488Z,984.6
2017-10-09T07:23:31.440Z,984.5
2017-10-09T07:24:33.679Z,984.6
2017-10-09T07:25:35.594Z,984.6
2017-10-09T07:26:37.549Z,984.6
2017-10-09T07:27:39.844Z,984.6
2017-10-09T07:28:41.915Z,984.6
2017-10-09T07:29:43.945Z,984.7
2017-10-09T07:30:46.022Z,984.7
2017-10-09T07:31:47.985Z,984.7
2017-10-09T07:32:50.251Z,984.6
2017-10-09T07:33:52.206Z,984.7
2017-10-09T07:34:54.193Z,984.7
2017-10-09T07:35:56.264Z,984.6
2017-10-09T07:36:58.370Z,984.6
2017-10-09T07:38:00.673Z,984.7
2017-10-09T07:39:02.638Z,984.7
2017-10-09T07:40:04.594Z,984.7
2017-10-09T07:41:06.611Z,984.8
2017-10-09T07:42:08.642Z,984.8
2017-10-09T07:43:11.091Z,984.7
2017-10-09T07:44:13.012Z,984.8
2017-10-09T07:45:14.988Z,984.8
2017-10-09T07:46:16.936Z,984.8
2017-10-09T07:47:19.003Z,984.8
2017-10-09T07:48:21.452Z,984.8
2017-10-09T07:49:23.404Z,984.8
2017-10-09T07:50:25.389Z,984.9
2017-10-09T07:51:27.382Z,984.8
2017-10-09T07:52:29.428Z,984.7
2017-10-09T07:53:31.662Z,984.8
2017-10-09T07:54:33.673Z,984.7
2017-10-09T07:55:35.647Z,984.7
2017-10-09T07:56:37.642Z,984.7
2017-10-09T07:57:39.572Z,984.8
2017-10-09T07:58:41.870Z,984.8
2017-10-09T07:59:43.822Z,984.8
2017-10-09T08:00:45.782Z,984.8
2017-10-09T08:01:47.739Z,984.7
2017-10-09T08:02:49.700Z,984.6
2017-10-09T08:03:52.174Z,984.7
2017-10-09T08:04:54.188Z,984.7
2017-10-09T08:05:56.177Z,984.7
2017-10-09T08:06:58.197Z,984.8
2017-10-09T08:08:00.303Z,984.8
2017-10-09T08:09:02.673Z,984.8
2017-10-09T08:10:04.562Z,984.8
2017-10-09T08:11:06.625Z,984.8
2017-10-09T08:12:08.614Z,984.7
2017-10-09T08:13:11.366Z,984.7
2017-10-09T08:14:14.751Z,984.8
2017-10-09T08:15:16.685Z,984.7
2017-10-09T08:16:18.709Z,984.8
2017-10-09T08:17:20.667Z,984.8
2017-10-09T08:18:22.636Z,984.8
2017-10-09T08:19:24.984Z,984.8
2017-10-09T08:20:26.930Z,984.9
2017-10-09T08:21:28.855Z,984.9
2017-10-09T08:22:30.849Z,984.9
2017-10-09T08:23:32.843Z,985
2017-10-09T08:24:35.081Z,985
2017-10-09T08:25:37.035Z,984.9
2017-10-09T08:26:39.037Z,984.9
2017-10-09T08:27:41.112Z,985
2017-10-09T08:28:43.036Z,985
2017-10-09T08:29:45.294Z,984.9
2017-10-09T08:30:47.306Z,985
2017-10-09T08:31:49.287Z,985
2017-10-09T08:32:51.263Z,985.3
2017-10-09T08:33:53.239Z,985.1
2017-10-09T08:34:55.554Z,985
2017-10-09T08:35:57.567Z,985
2017-10-09T08:36:59.559Z,984.8
2017-10-09T08:38:01.511Z,984.9
2017-10-09T08:39:05.777Z,984.9
2017-10-09T08:41:20.500Z,984.9
2017-10-09T08:42:27.865Z,984.8
2017-10-09T08:43:29.912Z,984.8
2017-10-09T08:44:31.955Z,984.8
2017-10-09T08:46:52.469Z,984.9
2017-10-09T08:47:59.833Z,984.9
2017-10-09T08:49:07.143Z,984.8
2017-10-09T08:50:14.528Z,984.8
2017-10-09T08:57:15.449Z,984.7
2017-10-09T08:59:30.056Z,985.1
2017-10-09T09:01:50.017Z,985
2017-10-09T09:11:00.182Z,985
2017-10-09T09:12:07.536Z,985
2017-10-09T09:14:26.128Z,985.2
2017-10-09T09:15:33.516Z,985.3
2017-10-09T09:16:40.945Z,985.1
2017-10-09T09:19:00.906Z,985.2
2017-10-09T09:21:12.249Z,984.9
2017-10-09T09:25:41.863Z,985.2
2017-10-09T09:27:56.701Z,985
2017-10-09T09:30:12.289Z,984.6
2017-10-09T09:32:27.138Z,984.6
2017-10-09T09:33:29.226Z,984.5
2017-10-09T09:35:43.954Z,984.5
2017-10-09T09:38:04.078Z,984.6
2017-10-09T09:40:13.605Z,984.6
2017-10-09T09:41:15.720Z,984.5
2017-10-09T09:43:36.057Z,984.4
2017-10-09T09:45:50.757Z,984.4
2017-10-09T09:46:52.864Z,984.5
2017-10-09T09:49:13.232Z,984.4
2017-10-09T09:51:27.924Z,984.3
2017-10-09T09:52:29.996Z,984.3
2017-10-09T09:53:32.261Z,984.3
2017-10-09T09:54:36.426Z,984.2
2017-10-09T09:55:38.338Z,984.2
2017-10-09T09:56:40.305Z,984.3
2017-10-09T09:57:42.338Z,984.2
2017-10-09T09:58:44.773Z,984.3
2017-10-09T09:59:46.732Z,984.3
2017-10-09T10:00:48.772Z,984.3
2017-10-09T10:01:50.751Z,984.3
2017-10-09T10:02:52.758Z,984.2
2017-10-09T10:03:55.075Z,984.2
2017-10-09T10:04:57.047Z,984.2
2017-10-09T10:05:59.037Z,984.2
2017-10-09T10:07:01.059Z,984.2
2017-10-09T10:08:03.067Z,984.2
2017-10-09T10:09:05.419Z,984.2
2017-10-09T10:10:07.471Z,984.3
2017-10-09T10:11:11.225Z,984.3
2017-10-09T10:12:13.179Z,984.4
2017-10-09T10:13:15.175Z,984.4
2017-10-09T10:14:17.580Z,984.6
2017-10-09T10:15:19.643Z,984.6
2017-10-09T10:16:21.649Z,984.5
2017-10-09T10:17:23.697Z,984.4
2017-10-09T10:18:25.818Z,984.5
2017-10-09T10:19:27.836Z,984.4
2017-10-09T10:20:29.776Z,984.4
2017-10-09T10:21:31.835Z,984.4
2017-10-09T10:22:34.011Z,984.3
2017-10-09T10:23:35.975Z,984.4
2017-10-09T10:24:37.952Z,984.2
2017-10-09T10:25:39.838Z,984.3
2017-10-09T10:26:41.819Z,984.3
2017-10-09T10:27:43.846Z,984.2
2017-10-09T10:28:45.792Z,984.3
2017-10-09T10:29:48.117Z,984.3
2017-10-09T10:30:50.129Z,984.2
2017-10-09T10:31:52.127Z,984.2
2017-10-09T10:32:54.128Z,984.2
2017-10-09T10:33:56.108Z,984.1
2017-10-09T10:34:58.385Z,984.2
2017-10-09T10:36:00.347Z,984.1
2017-10-09T10:37:02.939Z,984.1
2017-10-09T10:38:04.842Z,984.1
2017-10-09T10:39:07.960Z,984
2017-10-09T10:40:11.939Z,984.1
2017-10-09T10:41:13.911Z,984.1
2017-10-09T10:42:15.904Z,984.1
2017-10-09T10:43:17.911Z,984.1
2017-10-09T10:44:20.114Z,984.1
2017-10-09T10:45:22.383Z,984.1
2017-10-09T10:46:24.346Z,984.1
2017-10-09T10:47:26.304Z,984
2017-10-09T10:48:28.301Z,984.1
2017-10-09T10:49:30.391Z,984.1
2017-10-09T10:50:32.647Z,984.1
2017-10-09T10:51:34.587Z,984.2
2017-10-09T10:52:36.523Z,984.2
2017-10-09T10:53:38.573Z,984.2
2017-10-09T10:54:40.547Z,984.3
2017-10-09T10:55:42.816Z,984.3
2017-10-09T10:56:44.756Z,984.2
2017-10-09T10:57:46.685Z,984.2
2017-10-09T10:58:48.725Z,984.2
2017-10-09T10:59:50.638Z,984.1
2017-10-09T11:00:52.983Z,984.1
2017-10-09T11:01:54.952Z,984.2
2017-10-09T11:02:56.922Z,984.1
2017-10-09T11:03:58.982Z,984.1
2017-10-09T11:05:00.984Z,984.1
2017-10-09T11:06:03.246Z,984.1
2017-10-09T11:07:05.231Z,984.1
2017-10-09T11:08:07.609Z,984.1
2017-10-09T11:09:09.617Z,984.1
2017-10-09T11:10:12.148Z,984.2
2017-10-09T11:11:14.398Z,984.1
2017-10-09T11:12:16.367Z,984.1
2017-10-09T11:13:18.684Z,984.1
2017-10-09T11:14:20.928Z,984
2017-10-09T11:15:22.932Z,984
2017-10-09T11:16:25.202Z,984.1
2017-10-09T11:17:27.125Z,984.1
2017-10-09T11:18:29.080Z,984
2017-10-09T11:19:30.991Z,984
2017-10-09T11:20:32.927Z,984
2017-10-09T11:21:35.212Z,983.9
2017-10-09T11:22:37.280Z,983.9
2017-10-09T11:23:39.242Z,983.9
2017-10-09T11:24:41.209Z,983.8
2017-10-09T11:25:43.268Z,983.8
2017-10-09T11:26:45.490Z,983.8
2017-10-09T11:27:47.439Z,983.8
2017-10-09T11:28:49.503Z,983.8
2017-10-09T11:29:51.483Z,983.9
2017-10-09T11:30:53.698Z,984
2017-10-09T11:31:55.932Z,984
2017-10-09T11:32:57.850Z,984
2017-10-09T11:33:59.823Z,984.1
2017-10-09T11:35:01.843Z,984
2017-10-09T11:36:03.834Z,983.9
2017-10-09T11:37:06.726Z,983.9
2017-10-09T11:38:08.684Z,983.9
2017-10-09T11:39:10.682Z,983.9
2017-10-09T11:40:13.987Z,983.7
2017-10-09T11:41:16.036Z,983.8
2017-10-09T11:42:18.341Z,983.7
2017-10-09T11:43:20.310Z,983.7
2017-10-09T11:44:22.478Z,983.7
2017-10-09T11:45:24.425Z,983.7
2017-10-09T11:46:26.406Z,983.7
2017-10-09T11:47:28.671Z,983.8
2017-10-09T11:48:30.740Z,983.7
2017-10-09T11:49:32.772Z,983.7
2017-10-09T11:50:34.734Z,983.7
2017-10-09T11:51:36.666Z,983.6
2017-10-09T11:52:38.961Z,983.6
2017-10-09T11:53:40.914Z,983.7
2017-10-09T11:54:42.917Z,983.8
2017-10-09T11:55:44.906Z,983.8
2017-10-09T11:56:46.937Z,983.7
2017-10-09T11:57:49.240Z,983.7
2017-10-09T11:58:51.249Z,983.7
2017-10-09T11:59:53.432Z,983.7
2017-10-09T12:00:55.433Z,983.7
2017-10-09T12:01:57.352Z,983.6
2017-10-09T12:02:59.706Z,983.6
2017-10-09T12:04:01.649Z,983.5
2017-10-09T12:05:03.646Z,983.6
2017-10-09T12:06:05.608Z,983.5
2017-10-09T12:07:07.668Z,983.5
2017-10-09T12:08:10.075Z,983.4
2017-10-09T12:09:13.852Z,983.5
2017-10-09T12:10:15.748Z,983.5
2017-10-09T12:11:17.977Z,983.6
2017-10-09T12:12:19.971Z,983.5
2017-10-09T12:13:22.200Z,983.5
2017-10-09T12:14:24.175Z,983.5
2017-10-09T12:15:26.215Z,983.5
2017-10-09T12:16:28.243Z,983.5
2017-10-09T12:17:30.271Z,983.5
2017-10-09T12:18:32.554Z,983.5
2017-10-09T12:19:34.534Z,983.6
2017-10-09T12:20:36.594Z,983.6
2017-10-09T12:21:38.621Z,983.5
2017-10-09T12:22:40.614Z,983.5
2017-10-09T12:23:42.863Z,983.5
2017-10-09T12:24:44.815Z,983.4
2017-10-09T12:25:46.844Z,983.5
2017-10-09T12:26:49.070Z,983.4
2017-10-09T12:27:51.048Z,983.4
2017-10-09T12:28:53.317Z,983.4
2017-10-09T12:29:55.321Z,983.4
2017-10-09T12:30:57.203Z,983.4
2017-10-09T12:31:59.245Z,983.5
2017-10-09T12:33:01.195Z,983.5
2017-10-09T12:34:03.490Z,983.5
2017-10-09T12:35:05.459Z,983.5
2017-10-09T12:36:07.389Z,983.4
2017-10-09T12:37:09.435Z,983.4
2017-10-09T12:38:11.428Z,983.3
2017-10-09T12:39:13.698Z,983.3
2017-10-09T12:40:19.042Z,983.2
2017-10-09T12:41:21.050Z,983.3
2017-10-09T12:42:22.964Z,983.3
2017-10-09T12:43:24.962Z,983.2
2017-10-09T12:44:27.192Z,983.2
2017-10-09T12:45:29.124Z,983.2
2017-10-09T12:46:31.178Z,983.2
2017-10-09T12:47:33.101Z,983.2
2017-10-09T12:48:35.039Z,983.2
2017-10-09T12:49:37.260Z,983.3
2017-10-09T12:50:39.290Z,983.2
2017-10-09T12:51:41.297Z,983.2
2017-10-09T12:52:43.372Z,983.3
2017-10-09T12:53:45.282Z,983.1
2017-10-09T12:54:47.585Z,983.2
2017-10-09T12:55:49.593Z,983.2
2017-10-09T12:56:51.565Z,983.1
2017-10-09T12:57:53.562Z,983.1
2017-10-09T12:58:55.576Z,983.1
2017-10-09T12:59:57.897Z,983.2
2017-10-09T13:00:59.909Z,983.2
2017-10-09T13:02:01.857Z,983.2
2017-10-09T13:03:03.820Z,983.1
2017-10-09T13:04:05.799Z,983.2
2017-10-09T13:05:08.091Z,983.2
2017-10-09T13:06:12.015Z,983.2
2017-10-09T13:07:13.975Z,983.1
2017-10-09T13:08:15.980Z,983.1
2017-10-09T13:09:18.178Z,983.2
2017-10-09T13:10:20.396Z,983.1
2017-10-09T13:11:22.477Z,983.2
2017-10-09T13:12:24.418Z,983.1
2017-10-09T13:13:26.421Z,983
2017-10-09T13:14:28.436Z,983
2017-10-09T13:15:30.699Z,983
2017-10-09T13:16:32.742Z,983
2017-10-09T13:17:34.729Z,982.9
2017-10-09T13:18:36.698Z,983
2017-10-09T13:19:38.667Z,983
2017-10-09T13:20:40.914Z,983
2017-10-09T13:21:43.106Z,982.9
2017-10-09T13:22:45.102Z,983
2017-10-09T13:23:47.103Z,982.9
2017-10-09T13:24:49.146Z,982.9
2017-10-09T13:25:51.491Z,982.8
2017-10-09T13:26:53.443Z,982.9
2017-10-09T13:27:55.377Z,982.9
2017-10-09T13:28:57.323Z,982.9
2017-10-09T13:29:59.329Z,982.9
2017-10-09T13:31:03.235Z,982.9
2017-10-09T13:32:05.241Z,982.8
2017-10-09T13:33:07.543Z,982.8
2017-10-09T13:34:09.492Z,982.7
2017-10-09T13:35:11.492Z,982.7
2017-10-09T13:36:14.163Z,982.7
2017-10-09T13:37:16.112Z,982.8
2017-10-09T13:38:18.606Z,982.8
2017-10-09T13:39:20.507Z,982.7
2017-10-09T13:40:22.426Z,982.7
2017-10-09T13:41:24.783Z,982.7
2017-10-09T13:42:26.825Z,982.8
2017-10-09T13:43:28.813Z,982.7
2017-10-09T13:44:30.764Z,982.7
2017-10-09T13:45:32.913Z,982.7
2017-10-09T13:46:40.726Z,982.7
2017-10-09T13:47:43.094Z,982.7
2017-10-09T13:51:05.250Z,982.7
2017-10-09T13:52:08.140Z,982.6
2017-10-09T13:53:10.357Z,982.6
2017-10-09T13:54:14.050Z,982.7
2017-10-09T13:56:33.730Z,982.6
2017-10-09T13:58:48.656Z,982.7
2017-10-09T14:01:08.583Z,982.6
2017-10-09T14:04:30.997Z,982.5
2017-10-09T14:05:33.088Z,982.6
2017-10-09T14:10:07.868Z,982.5
2017-10-09T14:13:29.936Z,982.4
2017-10-09T14:14:32.038Z,982.5
2017-10-09T14:15:34.100Z,982.4
2017-10-09T14:20:03.847Z,982.4
2017-10-09T14:22:13.266Z,982.4
2017-10-09T14:23:15.338Z,982.3